Tuesday, February 20, 2018, 10:30 AM EST
Back to Local

KFME, Fort Meade / Tipton

Location: Laurel, MD, United States Lat: 39.083
Local Time: 10:30 AM EST (15:30 GMT) Lon: -76.767
Time Zone: US/Eastern Elev: 150 ft

Show me the last for .
Show Decoded

2018-02-20 10:15 METAR KFME 201515Z AUTO 21008KT 10SM SCT080 16/12 A3039 RMK AO1 =
2018-02-20 09:57 METAR KFME 201457Z AUTO 22009KT 10SM SCT080 16/12 A3039 RMK AO1 =
2018-02-20 09:36 METAR KFME 201436Z AUTO 21012G16KT 10SM CLR 15/12 A3039 RMK AO1 =
2018-02-20 09:15 METAR KFME 201415Z AUTO 22009G16KT 10SM SCT008 15/12 A3039 RMK AO1 =
2018-02-20 08:57 METAR KFME 201357Z AUTO 22006KT 10SM BKN008 13/12 A3039 RMK AO1 =
2018-02-20 08:36 METAR KFME 201336Z AUTO 22007KT 10SM OVC006 12/11 A3039 RMK AO1 =
2018-02-20 08:15 METAR KFME 201315Z AUTO 22007KT 10SM OVC006 12/11 A3039 RMK AO1 =
2018-02-20 07:57 METAR KFME 201257Z AUTO 22007G15KT 10SM OVC006 12/11 A3039 RMK AO1 =
2018-02-20 07:36 METAR KFME 201236Z AUTO 22009KT 10SM OVC006 11/11 A3039 RMK AO1 =
2018-02-20 07:15 METAR KFME 201215Z AUTO 22006KT 7SM OVC004 11/10 A3039 RMK AO1 =
2018-02-20 06:57 METAR KFME 201157Z AUTO 23007KT 10SM OVC004 11/10 A3038 RMK AO1 =
2018-02-20 06:36 METAR KFME 201136Z AUTO 23009KT 10SM OVC004 11/10 A3037 RMK AO1 =
2018-02-20 06:15 METAR KFME 201115Z AUTO 22009G17KT 10SM OVC004 11/10 A3036 RMK AO1 =
2018-02-20 05:57 METAR KFME 201057Z AUTO 22010KT 7SM OVC004 11/10 A3036 RMK AO1 =
2018-02-20 05:36 METAR KFME 201036Z AUTO 22009G15KT 7SM OVC004 11/10 A3035 RMK AO1 =
2018-02-20 05:15 METAR KFME 201015Z AUTO 23007G14KT 7SM OVC004 11/10 A3035 RMK AO1 =
2018-02-20 04:57 METAR KFME 200957Z AUTO 23007KT 7SM OVC004 11/10 A3034 RMK AO1 =
2018-02-20 04:36 METAR KFME 200936Z AUTO 22006KT 7SM OVC004 10/10 A3034 RMK AO1 =
2018-02-20 04:15 METAR KFME 200915Z AUTO 21006KT 5SM OVC004 10/10 A3033 RMK AO1 =
2018-02-20 03:57 METAR KFME 200857Z AUTO 21007KT 5SM OVC004 10/10 A3034 RMK AO1 =
2018-02-20 03:36 METAR KFME 200836Z AUTO 22008KT 5SM OVC004 10/10 A3034 RMK AO1 =
2018-02-20 03:15 METAR KFME 200815Z AUTO 22006KT 5SM OVC004 10/09 A3034 RMK AO1 =
2018-02-20 02:57 METAR KFME 200757Z AUTO 22008G14KT 7SM OVC004 10/09 A3034 RMK AO1 =
2018-02-20 02:36 METAR KFME 200736Z AUTO 21007KT 7SM OVC004 10/09 A3034 RMK AO1 =
2018-02-20 02:15 METAR KFME 200715Z AUTO 21007KT 7SM OVC004 10/09 A3034 RMK AO1 =
2018-02-20 01:57 METAR KFME 200657Z AUTO 22006KT 7SM OVC004 10/09 A3035 RMK AO1 =
2018-02-20 01:36 METAR KFME 200636Z AUTO 21008KT 7SM OVC006 10/09 A3035 RMK AO1 =
2018-02-20 01:15 METAR KFME 200615Z AUTO 22006KT 7SM OVC006 10/09 A3035 RMK AO1 =
2018-02-20 00:57 METAR KFME 200557Z AUTO 22006KT 7SM OVC006 10/08 A3035 RMK AO1 =
2018-02-20 00:36 METAR KFME 200536Z AUTO 21005KT 7SM OVC006 09/08 A3036 RMK AO1 =
2018-02-20 00:15 METAR KFME 200515Z AUTO 21004KT 7SM OVC006 09/08 A3036 RMK AO1 =
2018-02-19 23:57 METAR KFME 200457Z AUTO 21005KT 7SM OVC008 08/08 A3036 RMK AO1 =
2018-02-19 23:36 METAR KFME 200436Z AUTO 21004KT 5SM OVC008 08/07 A3037 RMK AO1 =
2018-02-19 23:15 METAR KFME 200415Z AUTO 21004KT 7SM OVC008 08/07 A3037 RMK AO1 =
2018-02-19 22:57 METAR KFME 200357Z AUTO 21004KT 7SM OVC008 07/07 A3037 RMK AO1 =
2018-02-19 22:36 METAR KFME 200336Z AUTO 22003KT 5SM OVC008 07/06 A3037 RMK AO1 =
2018-02-19 22:15 METAR KFME 200315Z AUTO 22003KT 7SM BKN008 OVC018 07/06 A3037 RMK AO1 =
2018-02-19 21:57 METAR KFME 200257Z AUTO 00000KT 7SM SCT008 OVC018 07/06 A3037 RMK AO1 =
2018-02-19 21:36 METAR KFME 200236Z AUTO 22003KT 5SM BKN008 OVC020 07/06 A3037 RMK AO1 =
2018-02-19 21:15 METAR KFME 200215Z AUTO 00000KT 4SM OVC008 07/06 A3037 RMK AO1 =
2018-02-19 20:57 METAR KFME 200157Z AUTO 00000KT 3SM OVC006 07/06 A3037 RMK AO1 =
2018-02-19 20:36 METAR KFME 200136Z AUTO 00000KT 3SM OVC006 07/06 A3037 RMK AO1 =
2018-02-19 20:15 METAR KFME 200115Z AUTO 00000KT 4SM OVC006 07/07 A3037 RMK AO1 =
2018-02-19 19:57 METAR KFME 200057Z AUTO 00000KT 3SM OVC004 07/06 A3037 RMK AO1 =
2018-02-19 19:36 METAR KFME 200036Z AUTO 00000KT 3SM OVC002 07/06 A3037 RMK AO1 =
2018-02-19 19:15 METAR KFME 200015Z AUTO 00000KT 2 1/2SM OVC002 07/06 A3037 RMK AO1 =
2018-02-19 18:57 METAR KFME 192357Z AUTO 00000KT 2SM OVC002 07/06 A3037 RMK AO1 =
2018-02-19 18:36 METAR KFME 192336Z AUTO 00000KT 2SM OVC002 07/06 A3037 RMK AO1 =
2018-02-19 18:15 METAR KFME 192315Z AUTO 00000KT 2 1/2SM OVC004 07/06 A3037 RMK AO1 =
2018-02-19 17:57 METAR KFME 192257Z AUTO 00000KT 4SM OVC004 07/06 A3037 RMK AO1 =
2018-02-19 17:36 METAR KFME 192236Z AUTO 00000KT 5SM OVC004 07/06 A3037 RMK AO1 =
2018-02-19 17:15 METAR KFME 192215Z AUTO 00000KT 4SM OVC004 07/06 A3037 RMK AO1 =
2018-02-19 16:57 METAR KFME 192157Z AUTO 14003KT 3SM OVC004 07/06 A3037 RMK AO1 =
2018-02-19 16:36 METAR KFME 192136Z AUTO 00000KT 3SM OVC004 07/06 A3038 RMK AO1 =
2018-02-19 16:15 METAR KFME 192115Z AUTO 00000KT 2 1/2SM OVC004 07/06 A3037 RMK AO1 =
2018-02-19 15:57 METAR KFME 192057Z AUTO 00000KT 2SM OVC004 07/06 A3038 RMK AO1 =
2018-02-19 15:36 METAR KFME 192036Z AUTO 00000KT 3SM OVC004 07/06 A3039 RMK AO1 =
2018-02-19 15:15 METAR KFME 192015Z AUTO 00000KT 2SM OVC004 07/06 A3039 RMK AO1 =
2018-02-19 14:57 METAR KFME 191957Z AUTO 16004KT 1 3/4SM OVC004 06/06 A3038 RMK AO1 =
2018-02-19 14:36 METAR KFME 191936Z AUTO 00000KT 1 3/4SM OVC004 06/05 A3040 RMK AO1 =
2018-02-19 14:15 METAR KFME 191915Z AUTO 00000KT 1 1/2SM OVC006 06/05 A3041 RMK AO1 =
2018-02-19 13:57 METAR KFME 191857Z AUTO 00000KT 2SM OVC006 06/05 A3041 RMK AO1 =
2018-02-19 13:36 METAR KFME 191836Z AUTO 17003KT 2 1/2SM BKN006 OVC014 06/05 A3041 RMK AO1 =
2018-02-19 13:15 METAR KFME 191815Z AUTO 18005KT 3SM OVC012 06/04 A3042 RMK AO1 =
2018-02-19 12:57 METAR KFME 191757Z AUTO 00000KT 10SM OVC012 06/03 A3043 RMK AO1 =
2018-02-19 12:36 METAR KFME 191736Z AUTO 18003KT 7SM OVC014 06/03 A3045 RMK AO1 =
2018-02-19 12:15 METAR KFME 191715Z AUTO 00000KT 10SM OVC014 05/03 A3046 RMK AO1 =
2018-02-19 11:57 METAR KFME 191657Z AUTO 16003KT 10SM OVC016 05/03 A3047 RMK AO1 =
2018-02-19 11:36 METAR KFME 191636Z AUTO 00000KT 10SM OVC018 05/03 A3049 RMK AO1 =
2018-02-19 11:15 METAR KFME 191615Z AUTO 00000KT 10SM OVC018 05/03 A3049 RMK AO1 =
2018-02-19 10:57 METAR KFME 191557Z AUTO 00000KT 10SM OVC020 05/03 A3049 RMK AO1 =
2018-02-19 10:36 METAR KFME 191536Z AUTO 00000KT 10SM OVC022 04/03 A3050 RMK AO1

Support USWX by starting your Amazon purchase here.